Wabanaki — WDG9870 — position and weather

sailwx.info

Track history (hours):
 
Tides and Currents Weather Stations Pressure Air Temp Water Temp Dewpoint Dewpoint Depression Visibility Wind Speed Wind Dir Waves Ship Positions

Wabanaki

Owner: Casco Bay Island Transit District, Portland, ME. More information available from US FCC via Universal Licensing System and Coast Guard Vessel Documentation Center.

Last reported at 2017-Sep-24 02:34 UTC. Time now 2017-Nov-23 15:12 UTC.
Position N 43°40' W 070°13'.
Warning: this ship's position is months out of date.

Type: Passenger vessel. MMSI: 367591990.

Date/timePositionNaut miles runAvg speedWind from/ knotsBaromVisibWave heightAir tempDewpointWater temp
2017-Sep-24 02:34N 43°40' W 070°13'1 4.8
2017-Sep-24 02:24N 43°40' W 070°12'2 4.4
2017-Sep-24 01:59N 43°42' W 070°10'1 2.5
2017-Sep-24 01:29N 43°41' W 070°11'1 1.5
2017-Sep-24 00:35N 43°40' W 070°13'3 5.9
2017-Sep-24 00:10N 43°42' W 070°10'0 1.7
2017-Sep-24 00:00N 43°41' W 070°11'2 4.6
2017-Sep-23 23:30N 43°40' W 070°13'2 3.4
2017-Sep-23 23:00N 43°39' W 070°15'3 3.9
2017-Sep-23 22:19N 43°41' W 070°11'  
2017-Sep-15 16:55N 43°39' W 070°15'2 4.0
2017-Sep-15 16:30N 43°40' W 070°13'3 4.8
2017-Sep-15 15:57N 43°42' W 070°10'2 4.3
2017-Sep-15 15:30N 43°40' W 070°12'2 4.6
2017-Sep-15 15:00N 43°39' W 070°15'0 0.0
2017-Sep-15 14:30N 43°39' W 070°15'0 0.0
2017-Sep-15 14:00N 43°39' W 070°15'0 0.0
2017-Sep-15 13:30N 43°39' W 070°15'2 4.6
2017-Sep-15 13:00N 43°40' W 070°12'1 3.0
2017-Sep-15 12:30N 43°41' W 070°11'2 4.1
2017-Sep-15 12:00N 43°40' W 070°12'2 3.7
2017-Sep-15 11:30N 43°39' W 070°15'0 0.0
2017-Sep-15 02:47N 43°39' W 070°15'2 6.1
2017-Sep-15 02:30N 43°40' W 070°13'3 5.3
2017-Sep-15 02:00N 43°42' W 070°10'1 2.0
2017-Sep-15 01:30N 43°41' W 070°11'3 6.4
2017-Sep-15 01:00N 43°39' W 070°15'2 3.1
2017-Sep-15 00:30N 43°40' W 070°13'3 5.6
2017-Sep-15 00:00N 43°42' W 070°10'4 1.8
2017-Sep-14 21:42N 43°39' W 070°15'1 3.1
2017-Sep-14 21:27N 43°40' W 070°14'3 7.7
2017-Sep-14 21:00N 43°42' W 070°10'2 4.1
2017-Sep-14 20:30N 43°41' W 070°13'2 0.6
2017-Sep-14 16:46N 43°39' W 070°15'1 3.0
2017-Sep-14 16:30N 43°40' W 070°14'3 6.9
2017-Sep-14 16:01N 43°42' W 070°10'1 2.7
2017-Sep-14 15:31N 43°41' W 070°11'3 5.8
2017-Sep-14 15:01N 43°39' W 070°15'0 0.0
2017-Sep-14 14:30N 43°39' W 070°15'0 0.0
2017-Sep-14 14:01N 43°39' W 070°15'0 0.0
2017-Sep-14 13:30N 43°39' W 070°15'2 3.7
2017-Sep-14 13:00N 43°40' W 070°12'2 3.8
2017-Sep-14 12:30N 43°41' W 070°11'2 4.4
2017-Sep-14 12:00N 43°40' W 070°13'2 3.1
2017-Sep-14 11:31N 43°39' W 070°15'0 0.0
2017-Sep-14 02:51N 43°39' W 070°15'  
Track history (hours):
 
Tides and Currents Weather Stations Pressure Air Temp Water Temp Dewpoint Dewpoint Depression Visibility Wind Speed Wind Dir Waves Ship Positions

Wabanaki

Owner: Casco Bay Island Transit District, Portland, ME. More information available from US FCC via Universal Licensing System and Coast Guard Vessel Documentation Center.

Last reported at 2017-Sep-24 02:34 UTC. Time now 2017-Nov-23 15:12 UTC.
Position N 43°40' W 070°13'.
Warning: this ship's position is months out of date.

Type: Passenger vessel. MMSI: 367591990.

Date/timePositionNaut miles runAvg speedWind from/ knotsBaromVisibWave heightAir tempDewpointWater temp
2017-Sep-24 02:34N 43°40' W 070°13'1 4.8
2017-Sep-24 02:24N 43°40' W 070°12'2 4.4
2017-Sep-24 01:59N 43°42' W 070°10'1 2.5
2017-Sep-24 01:29N 43°41' W 070°11'1 1.5
2017-Sep-24 00:35N 43°40' W 070°13'3 5.9
2017-Sep-24 00:10N 43°42' W 070°10'0 1.7
2017-Sep-24 00:00N 43°41' W 070°11'2 4.6
2017-Sep-23 23:30N 43°40' W 070°13'2 3.4
2017-Sep-23 23:00N 43°39' W 070°15'3 3.9
2017-Sep-23 22:19N 43°41' W 070°11'  
2017-Sep-15 16:55N 43°39' W 070°15'2 4.0
2017-Sep-15 16:30N 43°40' W 070°13'3 4.8
2017-Sep-15 15:57N 43°42' W 070°10'2 4.3
2017-Sep-15 15:30N 43°40' W 070°12'2 4.6
2017-Sep-15 15:00N 43°39' W 070°15'0 0.0
2017-Sep-15 14:30N 43°39' W 070°15'0 0.0
2017-Sep-15 14:00N 43°39' W 070°15'0 0.0
2017-Sep-15 13:30N 43°39' W 070°15'2 4.6
2017-Sep-15 13:00N 43°40' W 070°12'1 3.0
2017-Sep-15 12:30N 43°41' W 070°11'2 4.1
2017-Sep-15 12:00N 43°40' W 070°12'2 3.7
2017-Sep-15 11:30N 43°39' W 070°15'0 0.0
2017-Sep-15 02:47N 43°39' W 070°15'2 6.1
2017-Sep-15 02:30N 43°40' W 070°13'3 5.3
2017-Sep-15 02:00N 43°42' W 070°10'1 2.0
2017-Sep-15 01:30N 43°41' W 070°11'3 6.4
2017-Sep-15 01:00N 43°39' W 070°15'2 3.1
2017-Sep-15 00:30N 43°40' W 070°13'3 5.6
2017-Sep-15 00:00N 43°42' W 070°10'4 1.8
2017-Sep-14 21:42N 43°39' W 070°15'1 3.1
2017-Sep-14 21:27N 43°40' W 070°14'3 7.7
2017-Sep-14 21:00N 43°42' W 070°10'2 4.1
2017-Sep-14 20:30N 43°41' W 070°13'2 0.6
2017-Sep-14 16:46N 43°39' W 070°15'1 3.0
2017-Sep-14 16:30N 43°40' W 070°14'3 6.9
2017-Sep-14 16:01N 43°42' W 070°10'1 2.7
2017-Sep-14 15:31N 43°41' W 070°11'3 5.8
2017-Sep-14 15:01N 43°39' W 070°15'0 0.0
2017-Sep-14 14:30N 43°39' W 070°15'0 0.0
2017-Sep-14 14:01N 43°39' W 070°15'0 0.0
2017-Sep-14 13:30N 43°39' W 070°15'2 3.7
2017-Sep-14 13:00N 43°40' W 070°12'2 3.8
2017-Sep-14 12:30N 43°41' W 070°11'2 4.4
2017-Sep-14 12:00N 43°40' W 070°13'2 3.1
2017-Sep-14 11:31N 43°39' W 070°15'0 0.0
2017-Sep-14 02:51N 43°39' W 070°15'  

Dump ship's entire track history